sensor_id;sensor_type;location;lat;lon;timestamp;pressure;altitude;pressure_sealevel;temperature;humidity
64080;BME280;51042;49.696;10.808;2023-09-12T00:01:41;98149.50;;;16.72;100.00
64080;BME280;51042;49.696;10.808;2023-09-12T00:04:06;98147.44;;;16.67;100.00
64080;BME280;51042;49.696;10.808;2023-09-12T00:06:31;98143.19;;;16.57;100.00
64080;BME280;51042;49.696;10.808;2023-09-12T00:08:56;98141.41;;;16.54;100.00
64080;BME280;51042;49.696;10.808;2023-09-12T00:11:21;98140.34;;;16.51;100.00
64080;BME280;51042;49.696;10.808;2023-09-12T00:13:50;98138.84;;;16.50;100.00
64080;BME280;51042;49.696;10.808;2023-09-12T00:16:16;98133.50;;;16.47;100.00
64080;BME280;51042;49.696;10.808;2023-09-12T00:18:41;98143.03;;;16.46;100.00
64080;BME280;51042;49.696;10.808;2023-09-12T00:21:07;98140.00;;;16.44;100.00
64080;BME280;51042;49.696;10.808;2023-09-12T00:23:32;98127.31;;;16.37;100.00
64080;BME280;51042;49.696;10.808;2023-09-12T00:25:57;98134.47;;;16.29;100.00
64080;BME280;51042;49.696;10.808;2023-09-12T00:28:23;98130.31;;;16.19;100.00
64080;BME280;51042;49.696;10.808;2023-09-12T00:30:48;98130.22;;;16.13;100.00
64080;BME280;51042;49.696;10.808;2023-09-12T00:33:13;98124.38;;;16.11;100.00
64080;BME280;51042;49.696;10.808;2023-09-12T00:35:38;98129.16;;;16.11;100.00
64080;BME280;51042;49.696;10.808;2023-09-12T00:38:03;98124.38;;;16.11;100.00
64080;BME280;51042;49.696;10.808;2023-09-12T00:40:29;98131.91;;;16.11;100.00
64080;BME280;51042;49.696;10.808;2023-09-12T00:42:54;98119.41;;;16.15;100.00
64080;BME280;51042;49.696;10.808;2023-09-12T00:45:20;98125.25;;;16.17;100.00
64080;BME280;51042;49.696;10.808;2023-09-12T00:47:45;98121.69;;;16.17;100.00
64080;BME280;51042;49.696;10.808;2023-09-12T00:50:11;98127.44;;;16.13;100.00
64080;BME280;51042;49.696;10.808;2023-09-12T00:52:36;98123.22;;;16.18;100.00
64080;BME280;51042;49.696;10.808;2023-09-12T00:55:03;98124.94;;;16.15;100.00
64080;BME280;51042;49.696;10.808;2023-09-12T00:57:28;98123.91;;;16.13;100.00
64080;BME280;51042;49.696;10.808;2023-09-12T00:59:55;98121.41;;;16.15;100.00
64080;BME280;51042;49.696;10.808;2023-09-12T01:02:21;98111.88;;;16.16;100.00
64080;BME280;51042;49.696;10.808;2023-09-12T01:04:47;98111.78;;;16.10;100.00
64080;BME280;51042;49.696;10.808;2023-09-12T01:07:12;98115.53;;;16.07;100.00
64080;BME280;51042;49.696;10.808;2023-09-12T01:09:38;98118.19;;;16.02;100.00
64080;BME280;51042;49.696;10.808;2023-09-12T01:12:05;98117.13;;;15.99;100.00
64080;BME280;51042;49.696;10.808;2023-09-12T01:14:30;98113.81;;;15.95;100.00
64080;BME280;51042;49.696;10.808;2023-09-12T01:16:56;98121.06;;;15.92;100.00
64080;BME280;51042;49.696;10.808;2023-09-12T01:19:22;98127.06;;;15.91;100.00
64080;BME280;51042;49.696;10.808;2023-09-12T01:24:41;98120.97;;;15.87;100.00
64080;BME280;51042;49.696;10.808;2023-09-12T01:27:27;98118.41;;;15.83;100.00
64080;BME280;51042;49.696;10.808;2023-09-12T01:29:56;98122.31;;;15.77;100.00
64080;BME280;51042;49.696;10.808;2023-09-12T01:32:22;98117.44;;;15.72;100.00
64080;BME280;51042;49.696;10.808;2023-09-12T01:34:47;98107.78;;;15.67;100.00
64080;BME280;51042;49.696;10.808;2023-09-12T01:37:13;98117.59;;;15.68;100.00
64080;BME280;51042;49.696;10.808;2023-09-12T01:39:38;98112.56;;;15.67;100.00
64080;BME280;51042;49.696;10.808;2023-09-12T01:42:03;98113.50;;;15.64;100.00
64080;BME280;51042;49.696;10.808;2023-09-12T01:44:28;98109.03;;;15.66;100.00
64080;BME280;51042;49.696;10.808;2023-09-12T01:46:55;98099.97;;;15.66;100.00
64080;BME280;51042;49.696;10.808;2023-09-12T01:49:22;98107.97;;;15.64;100.00
64080;BME280;51042;49.696;10.808;2023-09-12T01:51:48;98095.13;;;15.61;100.00
64080;BME280;51042;49.696;10.808;2023-09-12T01:54:14;98100.34;;;15.59;100.00
64080;BME280;51042;49.696;10.808;2023-09-12T01:56:39;98098.81;;;15.58;100.00
64080;BME280;51042;49.696;10.808;2023-09-12T01:59:04;98103.59;;;15.57;100.00
64080;BME280;51042;49.696;10.808;2023-09-12T02:01:31;98099.00;;;15.54;100.00
64080;BME280;51042;49.696;10.808;2023-09-12T02:03:56;98099.78;;;15.55;100.00
64080;BME280;51042;49.696;10.808;2023-09-12T02:06:21;98100.81;;;15.57;100.00
64080;BME280;51042;49.696;10.808;2023-09-12T02:08:46;98108.06;;;15.55;100.00
64080;BME280;51042;49.696;10.808;2023-09-12T02:11:11;98109.78;;;15.52;100.00
64080;BME280;51042;49.696;10.808;2023-09-12T02:13:36;98106.13;;;15.46;100.00
64080;BME280;51042;49.696;10.808;2023-09-12T02:16:02;98108.31;;;15.42;100.00
64080;BME280;51042;49.696;10.808;2023-09-12T02:18:30;98116.41;;;15.31;100.00
64080;BME280;51042;49.696;10.808;2023-09-12T02:20:55;98113.81;;;15.27;100.00
64080;BME280;51042;49.696;10.808;2023-09-12T02:23:20;98118.56;;;15.27;100.00
64080;BME280;51042;49.696;10.808;2023-09-12T02:25:46;98122.00;;;15.22;100.00
64080;BME280;51042;49.696;10.808;2023-09-12T02:28:11;98121.53;;;15.23;100.00
64080;BME280;51042;49.696;10.808;2023-09-12T02:30:39;98114.00;;;15.24;100.00
64080;BME280;51042;49.696;10.808;2023-09-12T02:33:07;98109.59;;;15.17;100.00
64080;BME280;51042;49.696;10.808;2023-09-12T02:35:32;98114.34;;;15.17;100.00
64080;BME280;51042;49.696;10.808;2023-09-12T02:37:57;98119.59;;;15.15;100.00
64080;BME280;51042;49.696;10.808;2023-09-12T02:40:23;98113.78;;;15.13;100.00
64080;BME280;51042;49.696;10.808;2023-09-12T02:42:48;98121.78;;;15.10;100.00
64080;BME280;51042;49.696;10.808;2023-09-12T02:45:13;98112.13;;;15.06;100.00
64080;BME280;51042;49.696;10.808;2023-09-12T02:47:38;98113.56;;;15.01;100.00
64080;BME280;51042;49.696;10.808;2023-09-12T02:50:03;98115.84;;;15.03;100.00
64080;BME280;51042;49.696;10.808;2023-09-12T02:52:29;98113.44;;;14.96;100.00
64080;BME280;51042;49.696;10.808;2023-09-12T02:54:54;98119.59;;;14.91;100.00
64080;BME280;51042;49.696;10.808;2023-09-12T02:57:19;98121.59;;;14.90;100.00
64080;BME280;51042;49.696;10.808;2023-09-12T02:59:44;98111.50;;;14.87;100.00
64080;BME280;51042;49.696;10.808;2023-09-12T03:02:10;98114.25;;;14.87;100.00
64080;BME280;51042;49.696;10.808;2023-09-12T03:04:35;98109.78;;;14.90;100.00
64080;BME280;51042;49.696;10.808;2023-09-12T03:07:00;98112.28;;;14.88;100.00
64080;BME280;51042;49.696;10.808;2023-09-12T03:09:25;98119.59;;;14.91;100.00
64080;BME280;51042;49.696;10.808;2023-09-12T03:11:51;98113.81;;;14.89;100.00
64080;BME280;51042;49.696;10.808;2023-09-12T03:14:16;98109.50;;;14.88;100.00
64080;BME280;51042;49.696;10.808;2023-09-12T03:16:41;98111.66;;;14.84;100.00
64080;BME280;51042;49.696;10.808;2023-09-12T03:19:06;98110.63;;;14.81;100.00
64080;BME280;51042;49.696;10.808;2023-09-12T03:21:31;98114.16;;;14.82;100.00
64080;BME280;51042;49.696;10.808;2023-09-12T03:23:57;98119.06;;;14.78;100.00
64080;BME280;51042;49.696;10.808;2023-09-12T03:26:22;98108.66;;;14.73;100.00
64080;BME280;51042;49.696;10.808;2023-09-12T03:28:48;98109.16;;;14.71;100.00
64080;BME280;51042;49.696;10.808;2023-09-12T03:31:13;98119.13;;;14.68;100.00
64080;BME280;51042;49.696;10.808;2023-09-12T03:33:39;98108.41;;;14.70;100.00
64080;BME280;51042;49.696;10.808;2023-09-12T03:36:05;98102.38;;;14.72;100.00
64080;BME280;51042;49.696;10.808;2023-09-12T03:38:30;98104.41;;;14.72;100.00
64080;BME280;51042;49.696;10.808;2023-09-12T03:40:55;98103.78;;;14.67;100.00
64080;BME280;51042;49.696;10.808;2023-09-12T03:43:20;98112.25;;;14.64;100.00
64080;BME280;51042;49.696;10.808;2023-09-12T03:45:46;98112.16;;;14.58;100.00
64080;BME280;51042;49.696;10.808;2023-09-12T03:48:11;98103.56;;;14.56;100.00
64080;BME280;51042;49.696;10.808;2023-09-12T03:50:36;98117.53;;;14.53;100.00
64080;BME280;51042;49.696;10.808;2023-09-12T03:53:01;98102.53;;;14.45;100.00
64080;BME280;51042;49.696;10.808;2023-09-12T03:55:27;98109.03;;;14.42;100.00
64080;BME280;51042;49.696;10.808;2023-09-12T03:57:52;98108.25;;;14.41;100.00
64080;BME280;51042;49.696;10.808;2023-09-12T04:00:17;98107.19;;;14.39;100.00
64080;BME280;51042;49.696;10.808;2023-09-12T04:02:42;98102.25;;;14.34;100.00
64080;BME280;51042;49.696;10.808;2023-09-12T04:05:07;98100.72;;;14.32;100.00
64080;BME280;51042;49.696;10.808;2023-09-12T04:07:34;98101.19;;;14.31;100.00
64080;BME280;51042;49.696;10.808;2023-09-12T04:09:59;98096.44;;;14.31;100.00
64080;BME280;51042;49.696;10.808;2023-09-12T04:12:24;98093.53;;;14.35;100.00
64080;BME280;51042;49.696;10.808;2023-09-12T04:14:49;98092.44;;;14.32;100.00
64080;BME280;51042;49.696;10.808;2023-09-12T04:17:16;98090.16;;;14.31;100.00
64080;BME280;51042;49.696;10.808;2023-09-12T04:19:41;98087.13;;;14.29;100.00
64080;BME280;51042;49.696;10.808;2023-09-12T04:22:06;98095.41;;;14.29;100.00
64080;BME280;51042;49.696;10.808;2023-09-12T04:24:31;98099.19;;;14.31;100.00
64080;BME280;51042;49.696;10.808;2023-09-12T04:26:56;98099.19;;;14.31;100.00
64080;BME280;51042;49.696;10.808;2023-09-12T04:29:21;98099.81;;;14.36;100.00
64080;BME280;51042;49.696;10.808;2023-09-12T04:31:46;98094.59;;;14.38;100.00
64080;BME280;51042;49.696;10.808;2023-09-12T04:34:12;98107.00;;;14.42;100.00
64080;BME280;51042;49.696;10.808;2023-09-12T04:36:37;98098.88;;;14.48;100.00
64080;BME280;51042;49.696;10.808;2023-09-12T04:39:02;98104.19;;;14.51;100.00
64080;BME280;51042;49.696;10.808;2023-09-12T04:41:27;98104.50;;;14.53;100.00
64080;BME280;51042;49.696;10.808;2023-09-12T04:43:52;98099.72;;;14.54;100.00
64080;BME280;51042;49.696;10.808;2023-09-12T04:46:17;98109.53;;;14.55;100.00
64080;BME280;51042;49.696;10.808;2023-09-12T04:48:43;98115.81;;;14.55;100.00
64080;BME280;51042;49.696;10.808;2023-09-12T04:51:08;98114.28;;;14.54;100.00
64080;BME280;51042;49.696;10.808;2023-09-12T04:53:34;98108.78;;;14.54;100.00
64080;BME280;51042;49.696;10.808;2023-09-12T04:56:03;98105.56;;;14.56;100.00
64080;BME280;51042;49.696;10.808;2023-09-12T04:58:29;98109.97;;;14.62;100.00
64080;BME280;51042;49.696;10.808;2023-09-12T05:00:54;98109.03;;;14.65;100.00
64080;BME280;51042;49.696;10.808;2023-09-12T05:03:20;98109.78;;;14.66;100.00
64080;BME280;51042;49.696;10.808;2023-09-12T05:05:46;98108.28;;;14.65;100.00
64080;BME280;51042;49.696;10.808;2023-09-12T05:08:11;98114.69;;;14.71;100.00
64080;BME280;51042;49.696;10.808;2023-09-12T05:10:37;98114.91;;;15.06;100.00
64080;BME280;51042;49.696;10.808;2023-09-12T05:13:03;98121.63;;;15.82;100.00
64080;BME280;51042;49.696;10.808;2023-09-12T05:15:28;98113.34;;;16.46;100.00
64080;BME280;51042;49.696;10.808;2023-09-12T05:17:54;98108.78;;;16.78;100.00
64080;BME280;51042;49.696;10.808;2023-09-12T05:20:19;98113.00;;;16.94;100.00
64080;BME280;51042;49.696;10.808;2023-09-12T05:22:44;98111.88;;;16.65;100.00
64080;BME280;51042;49.696;10.808;2023-09-12T05:25:09;98120.47;;;16.32;100.00
64080;BME280;51042;49.696;10.808;2023-09-12T05:27:34;98122.28;;;16.06;100.00
64080;BME280;51042;49.696;10.808;2023-09-12T05:29:59;98119.34;;;15.95;100.00
64080;BME280;51042;49.696;10.808;2023-09-12T05:32:25;98120.66;;;16.00;100.00
64080;BME280;51042;49.696;10.808;2023-09-12T05:34:50;98121.69;;;16.31;100.00
64080;BME280;51042;49.696;10.808;2023-09-12T05:37:15;98129.84;;;17.10;100.00
64080;BME280;51042;49.696;10.808;2023-09-12T05:39:40;98130.75;;;17.63;100.00
64080;BME280;51042;49.696;10.808;2023-09-12T05:42:06;98124.13;;;17.60;100.00
64080;BME280;51042;49.696;10.808;2023-09-12T05:44:32;98125.66;;;17.41;100.00
64080;BME280;51042;49.696;10.808;2023-09-12T05:46:57;98136.72;;;17.15;100.00
64080;BME280;51042;49.696;10.808;2023-09-12T05:49:22;98133.06;;;17.03;100.00
64080;BME280;51042;49.696;10.808;2023-09-12T05:51:48;98133.19;;;16.94;100.00
64080;BME280;51042;49.696;10.808;2023-09-12T05:54:13;98135.53;;;17.01;100.00
64080;BME280;51042;49.696;10.808;2023-09-12T05:56:39;98126.34;;;17.10;100.00
64080;BME280;51042;49.696;10.808;2023-09-12T05:59:05;98130.06;;;17.27;100.00
64080;BME280;51042;49.696;10.808;2023-09-12T06:01:30;98123.94;;;17.23;100.00
64080;BME280;51042;49.696;10.808;2023-09-12T06:03:55;98126.94;;;16.99;100.00
64080;BME280;51042;49.696;10.808;2023-09-12T06:06:21;98131.28;;;16.65;100.00
64080;BME280;51042;49.696;10.808;2023-09-12T06:08:47;98136.69;;;16.74;100.00
64080;BME280;51042;49.696;10.808;2023-09-12T06:11:12;98132.81;;;16.66;100.00
64080;BME280;51042;49.696;10.808;2023-09-12T06:13:37;98135.97;;;16.59;100.00
64080;BME280;51042;49.696;10.808;2023-09-12T06:16:03;98125.84;;;16.56;100.00
64080;BME280;51042;49.696;10.808;2023-09-12T06:18:30;98129.19;;;16.60;100.00
64080;BME280;51042;49.696;10.808;2023-09-12T06:20:56;98125.19;;;16.61;100.00
64080;BME280;51042;49.696;10.808;2023-09-12T06:23:21;98128.03;;;16.67;100.00
64080;BME280;51042;49.696;10.808;2023-09-12T06:25:46;98132.66;;;16.76;100.00
64080;BME280;51042;49.696;10.808;2023-09-12T06:28:11;98135.59;;;16.87;100.00
64080;BME280;51042;49.696;10.808;2023-09-12T06:30:36;98132.69;;;16.96;100.00
64080;BME280;51042;49.696;10.808;2023-09-12T06:33:02;98127.78;;;17.05;100.00
64080;BME280;51042;49.696;10.808;2023-09-12T06:35:27;98131.44;;;17.17;100.00
64080;BME280;51042;49.696;10.808;2023-09-12T06:37:53;98132.69;;;17.16;100.00
64080;BME280;51042;49.696;10.808;2023-09-12T06:40:18;98137.75;;;17.18;100.00
64080;BME280;51042;49.696;10.808;2023-09-12T06:42:43;98131.25;;;17.21;100.00
64080;BME280;51042;49.696;10.808;2023-09-12T06:45:09;98132.00;;;17.21;100.00
64080;BME280;51042;49.696;10.808;2023-09-12T06:47:34;98137.63;;;17.27;100.00
64080;BME280;51042;49.696;10.808;2023-09-12T06:49:59;98135.84;;;17.70;100.00
64080;BME280;51042;49.696;10.808;2023-09-12T06:52:24;98142.53;;;17.83;100.00
64080;BME280;51042;49.696;10.808;2023-09-12T06:54:50;98129.97;;;18.19;100.00
64080;BME280;51042;49.696;10.808;2023-09-12T06:57:15;98129.25;;;18.24;100.00
64080;BME280;51042;49.696;10.808;2023-09-12T06:59:40;98130.78;;;18.25;100.00
64080;BME280;51042;49.696;10.808;2023-09-12T07:02:05;98126.28;;;18.28;100.00
64080;BME280;51042;49.696;10.808;2023-09-12T07:04:31;98135.25;;;18.49;100.00
64080;BME280;51042;49.696;10.808;2023-09-12T07:06:56;98131.28;;;18.55;100.00
64080;BME280;51042;49.696;10.808;2023-09-12T07:09:21;98131.50;;;18.52;100.00
64080;BME280;51042;49.696;10.808;2023-09-12T07:11:47;98129.94;;;18.45;100.00
64080;BME280;51042;49.696;10.808;2023-09-12T07:14:13;98131.47;;;18.46;100.00
64080;BME280;51042;49.696;10.808;2023-09-12T07:16:38;98124.22;;;18.60;100.00
64080;BME280;51042;49.696;10.808;2023-09-12T07:19:04;98116.75;;;18.77;100.00
64080;BME280;51042;49.696;10.808;2023-09-12T07:21:29;98116.56;;;18.86;100.00
64080;BME280;51042;49.696;10.808;2023-09-12T07:23:54;98125.50;;;19.07;100.00
64080;BME280;51042;49.696;10.808;2023-09-12T07:26:20;98120.81;;;19.35;100.00
64080;BME280;51042;49.696;10.808;2023-09-12T07:28:45;98121.16;;;19.60;100.00
64080;BME280;51042;49.696;10.808;2023-09-12T07:31:10;98134.63;;;19.78;100.00
64080;BME280;51042;49.696;10.808;2023-09-12T07:33:36;98131.84;;;20.11;100.00
64080;BME280;51042;49.696;10.808;2023-09-12T07:36:01;98129.06;;;19.89;100.00
64080;BME280;51042;49.696;10.808;2023-09-12T07:38:28;98132.63;;;19.95;100.00
64080;BME280;51042;49.696;10.808;2023-09-12T07:40:54;98131.59;;;20.09;100.00
64080;BME280;51042;49.696;10.808;2023-09-12T07:43:19;98129.56;;;20.26;100.00
64080;BME280;51042;49.696;10.808;2023-09-12T07:45:45;98126.28;;;20.50;100.00
64080;BME280;51042;49.696;10.808;2023-09-12T07:48:11;98135.41;;;20.45;100.00
64080;BME280;51042;49.696;10.808;2023-09-12T07:50:36;98129.31;;;20.30;100.00
64080;BME280;51042;49.696;10.808;2023-09-12T07:53:03;98130.09;;;20.25;100.00
64080;BME280;51042;49.696;10.808;2023-09-12T07:55:28;98139.47;;;20.38;100.00
64080;BME280;51042;49.696;10.808;2023-09-12T07:57:55;98138.69;;;20.71;100.00
64080;BME280;51042;49.696;10.808;2023-09-12T08:00:21;98137.06;;;21.04;100.00
64080;BME280;51042;49.696;10.808;2023-09-12T08:02:46;98125.31;;;21.39;100.00
64080;BME280;51042;49.696;10.808;2023-09-12T08:05:12;98126.28;;;21.41;100.00
64080;BME280;51042;49.696;10.808;2023-09-12T08:07:37;98125.16;;;21.09;100.00
64080;BME280;51042;49.696;10.808;2023-09-12T08:10:02;98135.72;;;21.27;100.00
64080;BME280;51042;49.696;10.808;2023-09-12T08:12:28;98142.63;;;21.73;100.00
64080;BME280;51042;49.696;10.808;2023-09-12T08:14:53;98142.16;;;22.10;98.82
64080;BME280;51042;49.696;10.808;2023-09-12T08:17:19;98136.38;;;22.62;94.30
64080;BME280;51042;49.696;10.808;2023-09-12T08:19:44;98138.84;;;22.95;89.84
64080;BME280;51042;49.696;10.808;2023-09-12T08:22:10;98137.00;;;23.22;89.12
64080;BME280;51042;49.696;10.808;2023-09-12T08:24:36;98136.53;;;23.18;87.19
64080;BME280;51042;49.696;10.808;2023-09-12T08:27:01;98139.84;;;23.41;86.28
64080;BME280;51042;49.696;10.808;2023-09-12T08:29:29;98135.25;;;23.62;84.99
64080;BME280;51042;49.696;10.808;2023-09-12T08:31:55;98131.25;;;23.14;84.73
64080;BME280;51042;49.696;10.808;2023-09-12T08:34:20;98135.44;;;23.27;87.34
64080;BME280;51042;49.696;10.808;2023-09-12T08:36:45;98138.13;;;23.56;84.72
64080;BME280;51042;49.696;10.808;2023-09-12T08:39:12;98135.63;;;23.53;83.48
64080;BME280;51042;49.696;10.808;2023-09-12T08:41:38;98128.84;;;23.43;82.76
64080;BME280;51042;49.696;10.808;2023-09-12T08:44:04;98124.47;;;23.29;83.66
64080;BME280;51042;49.696;10.808;2023-09-12T08:46:30;98124.38;;;23.34;84.28
64080;BME280;51042;49.696;10.808;2023-09-12T08:48:56;98129.13;;;23.64;82.40
64080;BME280;51042;49.696;10.808;2023-09-12T08:51:22;98118.84;;;24.04;84.85
64080;BME280;51042;49.696;10.808;2023-09-12T08:53:48;98118.97;;;24.11;81.79
64080;BME280;51042;49.696;10.808;2023-09-12T08:56:14;98117.88;;;24.01;82.04
64080;BME280;51042;49.696;10.808;2023-09-12T08:58:39;98123.75;;;24.16;82.14
64080;BME280;51042;49.696;10.808;2023-09-12T09:01:05;98127.00;;;24.65;79.50
64080;BME280;51042;49.696;10.808;2023-09-12T09:03:31;98118.97;;;24.30;76.62
64080;BME280;51042;49.696;10.808;2023-09-12T09:05:57;98125.59;;;24.59;80.12
64080;BME280;51042;49.696;10.808;2023-09-12T09:08:22;98119.31;;;25.45;75.93
64080;BME280;51042;49.696;10.808;2023-09-12T09:10:54;98123.69;;;26.14;71.66
64080;BME280;51042;49.696;10.808;2023-09-12T09:13:19;98116.06;;;25.54;72.11
64080;BME280;51042;49.696;10.808;2023-09-12T09:15:45;98117.09;;;25.43;74.94
64080;BME280;51042;49.696;10.808;2023-09-12T09:18:10;98114.28;;;25.43;72.38
64080;BME280;51042;49.696;10.808;2023-09-12T09:20:37;98116.97;;;25.62;73.18
64080;BME280;51042;49.696;10.808;2023-09-12T09:23:06;98119.94;;;25.98;70.83
64080;BME280;51042;49.696;10.808;2023-09-12T09:25:33;98115.09;;;25.65;72.03
64080;BME280;51042;49.696;10.808;2023-09-12T09:28:02;98119.19;;;26.31;71.64
64080;BME280;51042;49.696;10.808;2023-09-12T09:33:21;98116.09;;;25.88;70.82
64080;BME280;51042;49.696;10.808;2023-09-12T09:35:47;98116.97;;;26.37;70.56
64080;BME280;51042;49.696;10.808;2023-09-12T09:38:13;98104.53;;;26.54;69.08
64080;BME280;51042;49.696;10.808;2023-09-12T09:40:41;98100.47;;;26.62;69.71
64080;BME280;51042;49.696;10.808;2023-09-12T09:43:06;98093.78;;;26.73;68.73
64080;BME280;51042;49.696;10.808;2023-09-12T09:45:32;98105.75;;;26.66;67.25
64080;BME280;51042;49.696;10.808;2023-09-12T09:48:05;98106.56;;;26.74;66.88
64080;BME280;51042;49.696;10.808;2023-09-12T09:50:34;98104.41;;;27.23;65.93
64080;BME280;51042;49.696;10.808;2023-09-12T09:53:01;98093.28;;;26.82;66.15
64080;BME280;51042;49.696;10.808;2023-09-12T09:55:29;98101.06;;;27.25;64.36
64080;BME280;51042;49.696;10.808;2023-09-12T09:57:55;98101.50;;;27.01;64.97
64080;BME280;51042;49.696;10.808;2023-09-12T10:00:22;98098.59;;;27.21;64.78
64080;BME280;51042;49.696;10.808;2023-09-12T10:02:48;98094.66;;;27.17;64.04
64080;BME280;51042;49.696;10.808;2023-09-12T10:05:14;98091.34;;;27.34;62.87
64080;BME280;51042;49.696;10.808;2023-09-12T10:07:42;98090.50;;;27.18;62.63
64080;BME280;51042;49.696;10.808;2023-09-12T10:10:07;98096.22;;;27.33;64.26
64080;BME280;51042;49.696;10.808;2023-09-12T10:12:36;98100.50;;;27.78;62.06
64080;BME280;51042;49.696;10.808;2023-09-12T10:15:03;98099.97;;;27.36;62.82
64080;BME280;51042;49.696;10.808;2023-09-12T10:17:31;98089.75;;;27.17;62.27
64080;BME280;51042;49.696;10.808;2023-09-12T10:20:01;98077.16;;;27.18;63.10
64080;BME280;51042;49.696;10.808;2023-09-12T10:22:34;98071.00;;;27.79;63.47
64080;BME280;51042;49.696;10.808;2023-09-12T10:25:00;98074.06;;;28.64;61.34
64080;BME280;51042;49.696;10.808;2023-09-12T10:27:26;98071.75;;;29.01;60.00
64080;BME280;51042;49.696;10.808;2023-09-12T10:29:52;98079.84;;;29.04;58.27
64080;BME280;51042;49.696;10.808;2023-09-12T10:32:18;98081.75;;;29.02;57.84
64080;BME280;51042;49.696;10.808;2023-09-12T10:34:44;98076.47;;;28.98;57.28
64080;BME280;51042;49.696;10.808;2023-09-12T10:37:11;98079.28;;;29.06;56.88
64080;BME280;51042;49.696;10.808;2023-09-12T10:39:37;98079.94;;;29.29;56.62
64080;BME280;51042;49.696;10.808;2023-09-12T10:42:04;98069.03;;;29.26;57.65
64080;BME280;51042;49.696;10.808;2023-09-12T10:44:30;98067.53;;;29.25;57.21
64080;BME280;51042;49.696;10.808;2023-09-12T10:46:57;98066.44;;;29.12;57.13
64080;BME280;51042;49.696;10.808;2023-09-12T10:49:22;98064.13;;;29.26;55.89
64080;BME280;51042;49.696;10.808;2023-09-12T10:51:48;98060.84;;;28.97;56.82
64080;BME280;51042;49.696;10.808;2023-09-12T10:54:24;98061.22;;;28.94;57.71
64080;BME280;51042;49.696;10.808;2023-09-12T11:04:56;98056.00;;;30.52;55.85
64080;BME280;51042;49.696;10.808;2023-09-12T11:10:17;98064.09;;;30.06;55.18
64080;BME280;51042;49.696;10.808;2023-09-12T11:12:49;98054.25;;;29.82;55.68
64080;BME280;51042;49.696;10.808;2023-09-12T11:15:14;98059.56;;;29.78;55.25
64080;BME280;51042;49.696;10.808;2023-09-12T11:17:44;98054.28;;;29.75;54.54
64080;BME280;51042;49.696;10.808;2023-09-12T11:20:10;98050.75;;;29.99;55.53
64080;BME280;51042;49.696;10.808;2023-09-12T11:22:42;98052.53;;;30.12;53.87
64080;BME280;51042;49.696;10.808;2023-09-12T11:25:21;98049.66;;;30.19;54.24
64080;BME280;51042;49.696;10.808;2023-09-12T11:30:15;98041.97;;;30.12;54.45
64080;BME280;51042;49.696;10.808;2023-09-12T11:32:41;98043.59;;;30.82;54.05
64080;BME280;51042;49.696;10.808;2023-09-12T11:35:09;98040.44;;;31.30;52.92
64080;BME280;51042;49.696;10.808;2023-09-12T11:37:35;98036.28;;;31.57;52.25
64080;BME280;51042;49.696;10.808;2023-09-12T11:40:02;98039.16;;;31.40;50.83
64080;BME280;51042;49.696;10.808;2023-09-12T11:42:27;98040.38;;;31.64;51.99
64080;BME280;51042;49.696;10.808;2023-09-12T11:44:53;98034.56;;;31.98;51.42
64080;BME280;51042;49.696;10.808;2023-09-12T11:47:18;98033.53;;;32.03;50.20
64080;BME280;51042;49.696;10.808;2023-09-12T11:49:45;98032.44;;;31.89;49.19
64080;BME280;51042;49.696;10.808;2023-09-12T11:52:10;98034.19;;;32.12;50.32
64080;BME280;51042;49.696;10.808;2023-09-12T11:54:37;98030.22;;;32.34;48.53
64080;BME280;51042;49.696;10.808;2023-09-12T11:57:02;98035.16;;;32.33;50.39
64080;BME280;51042;49.696;10.808;2023-09-12T11:59:31;98037.13;;;32.60;49.40
64080;BME280;51042;49.696;10.808;2023-09-12T12:01:56;98045.06;;;32.61;47.28
64080;BME280;51042;49.696;10.808;2023-09-12T12:04:21;98039.06;;;32.48;48.37
64080;BME280;51042;49.696;10.808;2023-09-12T12:06:47;98036.44;;;32.78;47.65
64080;BME280;51042;49.696;10.808;2023-09-12T12:09:12;98036.16;;;33.13;48.39
64080;BME280;51042;49.696;10.808;2023-09-12T12:11:39;98030.91;;;33.38;46.59
64080;BME280;51042;49.696;10.808;2023-09-12T12:14:14;98035.41;;;33.03;47.08
64080;BME280;51042;49.696;10.808;2023-09-12T12:16:43;98033.91;;;32.92;47.40
64080;BME280;51042;49.696;10.808;2023-09-12T12:19:09;98032.09;;;32.77;47.52
64080;BME280;51042;49.696;10.808;2023-09-12T12:21:34;98031.63;;;32.52;49.22
64080;BME280;51042;49.696;10.808;2023-09-12T12:24:00;98029.75;;;31.91;47.73
64080;BME280;51042;49.696;10.808;2023-09-12T12:26:25;98029.00;;;32.27;49.20
64080;BME280;51042;49.696;10.808;2023-09-12T12:28:51;98028.94;;;32.64;48.03
64080;BME280;51042;49.696;10.808;2023-09-12T12:31:17;98023.00;;;32.98;46.78
64080;BME280;51042;49.696;10.808;2023-09-12T12:33:47;98020.66;;;32.39;46.73
64080;BME280;51042;49.696;10.808;2023-09-12T12:36:12;98009.47;;;32.41;47.38
64080;BME280;51042;49.696;10.808;2023-09-12T12:38:38;98010.22;;;32.51;48.17
64080;BME280;51042;49.696;10.808;2023-09-12T12:41:04;98008.94;;;33.00;47.23
64080;BME280;51042;49.696;10.808;2023-09-12T12:43:29;98008.00;;;33.07;47.74
64080;BME280;51042;49.696;10.808;2023-09-12T12:45:55;98006.06;;;33.10;46.02
64080;BME280;51042;49.696;10.808;2023-09-12T12:48:34;98001.44;;;32.76;46.65
64080;BME280;51042;49.696;10.808;2023-09-12T12:50:59;98004.72;;;32.72;48.18
64080;BME280;51042;49.696;10.808;2023-09-12T12:53:39;97994.81;;;33.31;46.42
64080;BME280;51042;49.696;10.808;2023-09-12T12:56:05;98000.31;;;33.58;47.02